sensor_id;sensor_type;location;lat;lon;timestamp;P1;durP1;ratioP1;P2;durP2;ratioP2
7001;SDS011;3541;53.230;10.518;2023-11-19T00:00:58;5.73;;;4.53;;
7001;SDS011;3541;53.230;10.518;2023-11-19T00:03:25;5.53;;;4.03;;
7001;SDS011;3541;53.230;10.518;2023-11-19T00:05:51;4.63;;;3.57;;
7001;SDS011;3541;53.230;10.518;2023-11-19T00:08:18;5.90;;;3.90;;
7001;SDS011;3541;53.230;10.518;2023-11-19T00:10:46;5.70;;;4.00;;
7001;SDS011;3541;53.230;10.518;2023-11-19T00:13:12;4.73;;;3.27;;
7001;SDS011;3541;53.230;10.518;2023-11-19T00:15:39;4.00;;;3.27;;
7001;SDS011;3541;53.230;10.518;2023-11-19T00:18:05;4.53;;;3.20;;
7001;SDS011;3541;53.230;10.518;2023-11-19T00:20:32;3.47;;;3.10;;
7001;SDS011;3541;53.230;10.518;2023-11-19T00:22:58;3.20;;;2.63;;
7001;SDS011;3541;53.230;10.518;2023-11-19T00:25:27;3.83;;;3.00;;
7001;SDS011;3541;53.230;10.518;2023-11-19T00:27:55;4.10;;;2.83;;
7001;SDS011;3541;53.230;10.518;2023-11-19T00:30:22;3.27;;;2.80;;
7001;SDS011;3541;53.230;10.518;2023-11-19T00:32:48;3.03;;;2.73;;
7001;SDS011;3541;53.230;10.518;2023-11-19T00:35:15;5.07;;;3.07;;
7001;SDS011;3541;53.230;10.518;2023-11-19T00:37:41;3.83;;;2.93;;
7001;SDS011;3541;53.230;10.518;2023-11-19T00:40:10;4.87;;;3.10;;
7001;SDS011;3541;53.230;10.518;2023-11-19T00:42:37;3.00;;;2.47;;
7001;SDS011;3541;53.230;10.518;2023-11-19T00:45:05;3.57;;;2.97;;
7001;SDS011;3541;53.230;10.518;2023-11-19T00:47:34;3.90;;;3.17;;
7001;SDS011;3541;53.230;10.518;2023-11-19T00:50:01;3.80;;;3.10;;
7001;SDS011;3541;53.230;10.518;2023-11-19T00:52:28;3.27;;;2.93;;
7001;SDS011;3541;53.230;10.518;2023-11-19T00:54:54;2.90;;;2.60;;
7001;SDS011;3541;53.230;10.518;2023-11-19T00:57:21;5.23;;;2.80;;
7001;SDS011;3541;53.230;10.518;2023-11-19T00:59:49;3.43;;;2.80;;
7001;SDS011;3541;53.230;10.518;2023-11-19T01:02:16;4.07;;;2.50;;
7001;SDS011;3541;53.230;10.518;2023-11-19T01:04:43;3.37;;;2.50;;
7001;SDS011;3541;53.230;10.518;2023-11-19T01:07:10;3.37;;;2.83;;
7001;SDS011;3541;53.230;10.518;2023-11-19T01:09:38;3.00;;;2.70;;
7001;SDS011;3541;53.230;10.518;2023-11-19T01:12:05;2.90;;;2.60;;
7001;SDS011;3541;53.230;10.518;2023-11-19T01:14:32;3.03;;;2.47;;
7001;SDS011;3541;53.230;10.518;2023-11-19T01:16:59;2.47;;;2.27;;
7001;SDS011;3541;53.230;10.518;2023-11-19T01:19:28;3.87;;;3.33;;
7001;SDS011;3541;53.230;10.518;2023-11-19T01:21:55;2.40;;;2.17;;
7001;SDS011;3541;53.230;10.518;2023-11-19T01:24:21;2.77;;;2.30;;
7001;SDS011;3541;53.230;10.518;2023-11-19T01:26:48;2.67;;;2.40;;
7001;SDS011;3541;53.230;10.518;2023-11-19T01:29:15;2.70;;;2.00;;
7001;SDS011;3541;53.230;10.518;2023-11-19T01:31:41;4.10;;;2.27;;
7001;SDS011;3541;53.230;10.518;2023-11-19T01:34:08;2.20;;;2.00;;
7001;SDS011;3541;53.230;10.518;2023-11-19T01:36:37;3.67;;;2.37;;
7001;SDS011;3541;53.230;10.518;2023-11-19T01:39:05;2.80;;;2.20;;
7001;SDS011;3541;53.230;10.518;2023-11-19T01:41:33;2.40;;;2.20;;
7001;SDS011;3541;53.230;10.518;2023-11-19T01:44:00;3.07;;;2.23;;
7001;SDS011;3541;53.230;10.518;2023-11-19T01:46:27;1.90;;;1.80;;
7001;SDS011;3541;53.230;10.518;2023-11-19T01:48:54;2.33;;;2.00;;
7001;SDS011;3541;53.230;10.518;2023-11-19T01:51:21;2.10;;;1.80;;
7001;SDS011;3541;53.230;10.518;2023-11-19T01:53:49;2.20;;;2.00;;
7001;SDS011;3541;53.230;10.518;2023-11-19T01:56:16;2.70;;;2.20;;
7001;SDS011;3541;53.230;10.518;2023-11-19T01:58:43;2.00;;;1.80;;
7001;SDS011;3541;53.230;10.518;2023-11-19T02:01:11;2.50;;;1.80;;
7001;SDS011;3541;53.230;10.518;2023-11-19T02:03:39;5.07;;;2.00;;
7001;SDS011;3541;53.230;10.518;2023-11-19T02:06:06;2.10;;;1.87;;
7001;SDS011;3541;53.230;10.518;2023-11-19T02:08:35;2.00;;;1.80;;
7001;SDS011;3541;53.230;10.518;2023-11-19T02:11:03;2.07;;;1.90;;
7001;SDS011;3541;53.230;10.518;2023-11-19T02:13:32;2.50;;;1.90;;
7001;SDS011;3541;53.230;10.518;2023-11-19T02:15:58;2.17;;;1.97;;
7001;SDS011;3541;53.230;10.518;2023-11-19T02:18:27;2.00;;;1.80;;
7001;SDS011;3541;53.230;10.518;2023-11-19T02:20:54;3.03;;;1.90;;
7001;SDS011;3541;53.230;10.518;2023-11-19T02:23:21;1.90;;;1.70;;
7001;SDS011;3541;53.230;10.518;2023-11-19T02:25:51;1.87;;;1.77;;
7001;SDS011;3541;53.230;10.518;2023-11-19T02:28:27;1.80;;;1.70;;
7001;SDS011;3541;53.230;10.518;2023-11-19T02:30:54;2.40;;;1.70;;
7001;SDS011;3541;53.230;10.518;2023-11-19T02:33:20;1.60;;;1.50;;
7001;SDS011;3541;53.230;10.518;2023-11-19T02:35:48;1.57;;;1.47;;
7001;SDS011;3541;53.230;10.518;2023-11-19T02:38:14;1.70;;;1.60;;
7001;SDS011;3541;53.230;10.518;2023-11-19T02:40:41;2.10;;;1.90;;
7001;SDS011;3541;53.230;10.518;2023-11-19T02:43:07;1.70;;;1.50;;
7001;SDS011;3541;53.230;10.518;2023-11-19T02:45:36;1.63;;;1.53;;
7001;SDS011;3541;53.230;10.518;2023-11-19T02:48:02;2.03;;;1.50;;
7001;SDS011;3541;53.230;10.518;2023-11-19T02:50:31;2.00;;;1.80;;
7001;SDS011;3541;53.230;10.518;2023-11-19T02:52:58;1.90;;;1.80;;
7001;SDS011;3541;53.230;10.518;2023-11-19T02:55:26;3.03;;;2.23;;
7001;SDS011;3541;53.230;10.518;2023-11-19T02:57:55;2.83;;;2.13;;
7001;SDS011;3541;53.230;10.518;2023-11-19T03:00:24;2.17;;;1.97;;
7001;SDS011;3541;53.230;10.518;2023-11-19T03:03:03;2.63;;;2.00;;
7001;SDS011;3541;53.230;10.518;2023-11-19T03:05:42;3.70;;;2.40;;
7001;SDS011;3541;53.230;10.518;2023-11-19T03:08:10;2.57;;;1.97;;
7001;SDS011;3541;53.230;10.518;2023-11-19T03:10:37;3.10;;;2.33;;
7001;SDS011;3541;53.230;10.518;2023-11-19T03:13:04;2.83;;;2.20;;
7001;SDS011;3541;53.230;10.518;2023-11-19T03:15:30;2.60;;;2.40;;
7001;SDS011;3541;53.230;10.518;2023-11-19T03:17:57;4.70;;;2.90;;
7001;SDS011;3541;53.230;10.518;2023-11-19T03:20:25;4.10;;;2.70;;
7001;SDS011;3541;53.230;10.518;2023-11-19T03:22:52;5.83;;;2.90;;
7001;SDS011;3541;53.230;10.518;2023-11-19T03:25:19;3.57;;;2.97;;
7001;SDS011;3541;53.230;10.518;2023-11-19T03:27:46;3.03;;;2.60;;
7001;SDS011;3541;53.230;10.518;2023-11-19T03:30:12;2.50;;;2.30;;
7001;SDS011;3541;53.230;10.518;2023-11-19T03:32:39;2.73;;;2.40;;
7001;SDS011;3541;53.230;10.518;2023-11-19T03:35:06;2.40;;;1.90;;
7001;SDS011;3541;53.230;10.518;2023-11-19T03:37:35;2.60;;;2.40;;
7001;SDS011;3541;53.230;10.518;2023-11-19T03:40:01;2.73;;;2.53;;
7001;SDS011;3541;53.230;10.518;2023-11-19T03:42:29;3.20;;;2.40;;
7001;SDS011;3541;53.230;10.518;2023-11-19T03:44:56;3.03;;;2.33;;
7001;SDS011;3541;53.230;10.518;2023-11-19T03:47:22;2.40;;;2.20;;
7001;SDS011;3541;53.230;10.518;2023-11-19T03:49:49;2.50;;;2.30;;
7001;SDS011;3541;53.230;10.518;2023-11-19T03:52:16;3.10;;;2.50;;
7001;SDS011;3541;53.230;10.518;2023-11-19T03:54:45;2.53;;;2.17;;
7001;SDS011;3541;53.230;10.518;2023-11-19T03:57:12;3.40;;;2.60;;
7001;SDS011;3541;53.230;10.518;2023-11-19T03:59:39;3.30;;;2.60;;
7001;SDS011;3541;53.230;10.518;2023-11-19T04:02:05;3.20;;;2.43;;
7001;SDS011;3541;53.230;10.518;2023-11-19T04:04:32;3.30;;;2.57;;
7001;SDS011;3541;53.230;10.518;2023-11-19T04:07:00;3.10;;;2.63;;
7001;SDS011;3541;53.230;10.518;2023-11-19T04:09:28;2.90;;;2.63;;
7001;SDS011;3541;53.230;10.518;2023-11-19T04:11:55;3.37;;;2.57;;
7001;SDS011;3541;53.230;10.518;2023-11-19T04:14:22;3.43;;;2.60;;
7001;SDS011;3541;53.230;10.518;2023-11-19T04:16:48;3.07;;;2.47;;
7001;SDS011;3541;53.230;10.518;2023-11-19T04:19:16;2.80;;;2.33;;
7001;SDS011;3541;53.230;10.518;2023-11-19T04:21:42;4.30;;;2.47;;
7001;SDS011;3541;53.230;10.518;2023-11-19T04:24:09;3.33;;;2.87;;
7001;SDS011;3541;53.230;10.518;2023-11-19T04:26:39;3.27;;;2.47;;
7001;SDS011;3541;53.230;10.518;2023-11-19T04:29:09;6.57;;;2.70;;
7001;SDS011;3541;53.230;10.518;2023-11-19T04:31:36;2.50;;;2.27;;
7001;SDS011;3541;53.230;10.518;2023-11-19T04:34:02;5.80;;;2.77;;
7001;SDS011;3541;53.230;10.518;2023-11-19T04:36:29;2.53;;;2.33;;
7001;SDS011;3541;53.230;10.518;2023-11-19T04:38:55;2.73;;;2.53;;
7001;SDS011;3541;53.230;10.518;2023-11-19T04:41:22;2.60;;;2.40;;
7001;SDS011;3541;53.230;10.518;2023-11-19T04:43:49;3.40;;;3.10;;
7001;SDS011;3541;53.230;10.518;2023-11-19T04:46:17;6.17;;;3.10;;
7001;SDS011;3541;53.230;10.518;2023-11-19T04:48:44;4.97;;;3.20;;
7001;SDS011;3541;53.230;10.518;2023-11-19T04:51:11;3.97;;;3.00;;
7001;SDS011;3541;53.230;10.518;2023-11-19T04:53:37;4.07;;;3.13;;
7001;SDS011;3541;53.230;10.518;2023-11-19T04:56:07;4.80;;;3.70;;
7001;SDS011;3541;53.230;10.518;2023-11-19T04:58:34;4.17;;;3.63;;
7001;SDS011;3541;53.230;10.518;2023-11-19T05:01:00;4.73;;;3.77;;
7001;SDS011;3541;53.230;10.518;2023-11-19T05:03:29;5.47;;;3.77;;
7001;SDS011;3541;53.230;10.518;2023-11-19T05:05:56;4.33;;;3.57;;
7001;SDS011;3541;53.230;10.518;2023-11-19T05:08:23;5.17;;;4.00;;
7001;SDS011;3541;53.230;10.518;2023-11-19T05:10:49;5.70;;;4.47;;
7001;SDS011;3541;53.230;10.518;2023-11-19T05:13:16;5.73;;;4.33;;
7001;SDS011;3541;53.230;10.518;2023-11-19T05:15:42;6.53;;;4.57;;
7001;SDS011;3541;53.230;10.518;2023-11-19T05:18:09;7.43;;;4.87;;
7001;SDS011;3541;53.230;10.518;2023-11-19T05:20:37;7.07;;;4.80;;
7001;SDS011;3541;53.230;10.518;2023-11-19T05:23:03;7.70;;;5.23;;
7001;SDS011;3541;53.230;10.518;2023-11-19T05:25:30;7.37;;;5.40;;
7001;SDS011;3541;53.230;10.518;2023-11-19T05:27:56;7.27;;;5.47;;
7001;SDS011;3541;53.230;10.518;2023-11-19T05:30:23;7.00;;;5.80;;
7001;SDS011;3541;53.230;10.518;2023-11-19T05:32:49;10.07;;;6.00;;
7001;SDS011;3541;53.230;10.518;2023-11-19T05:35:16;12.70;;;5.80;;
7001;SDS011;3541;53.230;10.518;2023-11-19T05:37:44;9.83;;;6.23;;
7001;SDS011;3541;53.230;10.518;2023-11-19T05:40:10;10.80;;;6.83;;
7001;SDS011;3541;53.230;10.518;2023-11-19T05:42:39;13.10;;;6.87;;
7001;SDS011;3541;53.230;10.518;2023-11-19T05:45:06;12.33;;;7.30;;
7001;SDS011;3541;53.230;10.518;2023-11-19T05:47:33;12.43;;;7.00;;
7001;SDS011;3541;53.230;10.518;2023-11-19T05:50:00;15.13;;;7.30;;
7001;SDS011;3541;53.230;10.518;2023-11-19T05:52:27;13.13;;;7.90;;
7001;SDS011;3541;53.230;10.518;2023-11-19T05:54:59;14.00;;;8.03;;
7001;SDS011;3541;53.230;10.518;2023-11-19T05:57:29;13.13;;;7.70;;
7001;SDS011;3541;53.230;10.518;2023-11-19T05:59:55;14.67;;;9.13;;
7001;SDS011;3541;53.230;10.518;2023-11-19T06:02:23;15.70;;;8.63;;
7001;SDS011;3541;53.230;10.518;2023-11-19T06:04:50;15.60;;;8.23;;
7001;SDS011;3541;53.230;10.518;2023-11-19T06:07:16;16.50;;;9.00;;
7001;SDS011;3541;53.230;10.518;2023-11-19T06:09:43;15.50;;;9.00;;
7001;SDS011;3541;53.230;10.518;2023-11-19T06:12:11;20.00;;;9.70;;
7001;SDS011;3541;53.230;10.518;2023-11-19T06:14:39;14.83;;;9.80;;
7001;SDS011;3541;53.230;10.518;2023-11-19T06:17:06;20.60;;;9.73;;
7001;SDS011;3541;53.230;10.518;2023-11-19T06:19:33;19.63;;;10.20;;
7001;SDS011;3541;53.230;10.518;2023-11-19T06:22:00;18.17;;;9.90;;
7001;SDS011;3541;53.230;10.518;2023-11-19T06:24:26;21.20;;;10.07;;
7001;SDS011;3541;53.230;10.518;2023-11-19T06:26:53;20.93;;;10.83;;
7001;SDS011;3541;53.230;10.518;2023-11-19T06:29:21;20.47;;;9.83;;
7001;SDS011;3541;53.230;10.518;2023-11-19T06:31:47;24.77;;;10.40;;
7001;SDS011;3541;53.230;10.518;2023-11-19T06:34:14;23.97;;;10.03;;
7001;SDS011;3541;53.230;10.518;2023-11-19T06:36:41;24.30;;;9.80;;
7001;SDS011;3541;53.230;10.518;2023-11-19T06:39:08;19.17;;;10.50;;
7001;SDS011;3541;53.230;10.518;2023-11-19T06:41:35;23.33;;;10.90;;
7001;SDS011;3541;53.230;10.518;2023-11-19T06:44:02;21.63;;;11.00;;
7001;SDS011;3541;53.230;10.518;2023-11-19T06:46:30;21.90;;;10.30;;
7001;SDS011;3541;53.230;10.518;2023-11-19T06:48:57;25.23;;;10.90;;
7001;SDS011;3541;53.230;10.518;2023-11-19T06:51:24;18.70;;;10.13;;
7001;SDS011;3541;53.230;10.518;2023-11-19T06:53:51;22.97;;;11.07;;
7001;SDS011;3541;53.230;10.518;2023-11-19T06:56:19;24.37;;;11.23;;
7001;SDS011;3541;53.230;10.518;2023-11-19T06:58:47;26.03;;;11.10;;
7001;SDS011;3541;53.230;10.518;2023-11-19T07:01:13;24.07;;;11.30;;
7001;SDS011;3541;53.230;10.518;2023-11-19T07:03:41;29.27;;;11.30;;
7001;SDS011;3541;53.230;10.518;2023-11-19T07:06:09;28.60;;;11.03;;
7001;SDS011;3541;53.230;10.518;2023-11-19T07:08:37;24.43;;;10.47;;
7001;SDS011;3541;53.230;10.518;2023-11-19T07:11:04;30.00;;;11.40;;
7001;SDS011;3541;53.230;10.518;2023-11-19T07:13:31;31.43;;;11.63;;
7001;SDS011;3541;53.230;10.518;2023-11-19T07:15:58;32.73;;;12.60;;
7001;SDS011;3541;53.230;10.518;2023-11-19T07:18:24;34.47;;;12.27;;
7001;SDS011;3541;53.230;10.518;2023-11-19T07:20:52;30.50;;;12.20;;
7001;SDS011;3541;53.230;10.518;2023-11-19T07:23:19;39.20;;;12.30;;
7001;SDS011;3541;53.230;10.518;2023-11-19T07:25:46;39.07;;;13.80;;
7001;SDS011;3541;53.230;10.518;2023-11-19T07:28:15;30.73;;;12.20;;
7001;SDS011;3541;53.230;10.518;2023-11-19T07:30:42;33.37;;;12.67;;
7001;SDS011;3541;53.230;10.518;2023-11-19T07:33:09;33.17;;;12.30;;
7001;SDS011;3541;53.230;10.518;2023-11-19T07:35:35;33.20;;;12.20;;
7001;SDS011;3541;53.230;10.518;2023-11-19T07:38:03;39.13;;;12.90;;
7001;SDS011;3541;53.230;10.518;2023-11-19T07:40:30;33.80;;;10.93;;
7001;SDS011;3541;53.230;10.518;2023-11-19T07:42:57;29.97;;;10.93;;
7001;SDS011;3541;53.230;10.518;2023-11-19T07:45:23;40.33;;;11.43;;
7001;SDS011;3541;53.230;10.518;2023-11-19T07:47:50;33.60;;;11.53;;
7001;SDS011;3541;53.230;10.518;2023-11-19T07:50:16;28.03;;;10.03;;
7001;SDS011;3541;53.230;10.518;2023-11-19T07:52:45;29.50;;;9.80;;
7001;SDS011;3541;53.230;10.518;2023-11-19T07:55:13;32.97;;;10.70;;
7001;SDS011;3541;53.230;10.518;2023-11-19T07:57:39;31.53;;;9.60;;
7001;SDS011;3541;53.230;10.518;2023-11-19T08:00:06;36.27;;;9.47;;
7001;SDS011;3541;53.230;10.518;2023-11-19T08:02:37;30.33;;;9.53;;
7001;SDS011;3541;53.230;10.518;2023-11-19T08:05:04;27.17;;;9.40;;
7001;SDS011;3541;53.230;10.518;2023-11-19T08:07:31;29.10;;;8.00;;
7001;SDS011;3541;53.230;10.518;2023-11-19T08:09:57;32.70;;;8.27;;
7001;SDS011;3541;53.230;10.518;2023-11-19T08:12:26;28.23;;;7.73;;
7001;SDS011;3541;53.230;10.518;2023-11-19T08:14:52;27.07;;;7.10;;
7001;SDS011;3541;53.230;10.518;2023-11-19T08:17:19;34.93;;;7.43;;
7001;SDS011;3541;53.230;10.518;2023-11-19T08:19:48;30.03;;;7.37;;
7001;SDS011;3541;53.230;10.518;2023-11-19T08:22:14;35.73;;;6.50;;
7001;SDS011;3541;53.230;10.518;2023-11-19T08:24:41;22.13;;;6.73;;
7001;SDS011;3541;53.230;10.518;2023-11-19T08:27:08;29.10;;;7.20;;
7001;SDS011;3541;53.230;10.518;2023-11-19T08:29:36;28.43;;;6.77;;
7001;SDS011;3541;53.230;10.518;2023-11-19T08:32:02;26.47;;;6.73;;
7001;SDS011;3541;53.230;10.518;2023-11-19T08:34:29;30.77;;;6.70;;
7001;SDS011;3541;53.230;10.518;2023-11-19T08:36:56;28.10;;;7.63;;
7001;SDS011;3541;53.230;10.518;2023-11-19T08:39:23;31.03;;;7.77;;
7001;SDS011;3541;53.230;10.518;2023-11-19T08:41:49;21.73;;;7.57;;
7001;SDS011;3541;53.230;10.518;2023-11-19T08:44:16;31.83;;;8.50;;
7001;SDS011;3541;53.230;10.518;2023-11-19T08:46:49;30.47;;;7.10;;
7001;SDS011;3541;53.230;10.518;2023-11-19T08:49:15;28.17;;;7.70;;
7001;SDS011;3541;53.230;10.518;2023-11-19T08:51:42;31.13;;;7.27;;
7001;SDS011;3541;53.230;10.518;2023-11-19T08:54:09;31.00;;;8.53;;
7001;SDS011;3541;53.230;10.518;2023-11-19T08:56:37;30.50;;;7.40;;
7001;SDS011;3541;53.230;10.518;2023-11-19T08:59:04;24.30;;;6.43;;
7001;SDS011;3541;53.230;10.518;2023-11-19T09:01:31;35.47;;;7.77;;
7001;SDS011;3541;53.230;10.518;2023-11-19T09:03:59;31.97;;;7.87;;
7001;SDS011;3541;53.230;10.518;2023-11-19T09:06:25;26.17;;;7.43;;
7001;SDS011;3541;53.230;10.518;2023-11-19T09:08:52;22.13;;;6.53;;
7001;SDS011;3541;53.230;10.518;2023-11-19T09:11:23;25.43;;;6.90;;
7001;SDS011;3541;53.230;10.518;2023-11-19T09:13:49;30.47;;;6.20;;
7001;SDS011;3541;53.230;10.518;2023-11-19T09:16:16;22.90;;;5.63;;
7001;SDS011;3541;53.230;10.518;2023-11-19T09:18:43;26.70;;;5.70;;
7001;SDS011;3541;53.230;10.518;2023-11-19T09:21:11;26.30;;;7.00;;
7001;SDS011;3541;53.230;10.518;2023-11-19T09:23:38;28.70;;;5.87;;
7001;SDS011;3541;53.230;10.518;2023-11-19T09:26:05;24.03;;;6.00;;
7001;SDS011;3541;53.230;10.518;2023-11-19T09:28:35;30.60;;;6.50;;
7001;SDS011;3541;53.230;10.518;2023-11-19T09:31:01;20.00;;;4.77;;
7001;SDS011;3541;53.230;10.518;2023-11-19T09:33:29;26.37;;;5.63;;
7001;SDS011;3541;53.230;10.518;2023-11-19T09:35:56;27.90;;;6.20;;
7001;SDS011;3541;53.230;10.518;2023-11-19T09:38:24;18.57;;;5.50;;
7001;SDS011;3541;53.230;10.518;2023-11-19T09:40:50;20.23;;;5.10;;
7001;SDS011;3541;53.230;10.518;2023-11-19T09:43:17;22.50;;;5.00;;
7001;SDS011;3541;53.230;10.518;2023-11-19T09:45:46;24.53;;;5.83;;
7001;SDS011;3541;53.230;10.518;2023-11-19T09:48:15;22.23;;;4.93;;
7001;SDS011;3541;53.230;10.518;2023-11-19T09:50:42;33.27;;;7.80;;
7001;SDS011;3541;53.230;10.518;2023-11-19T09:53:10;24.43;;;5.80;;
7001;SDS011;3541;53.230;10.518;2023-11-19T09:55:38;32.10;;;6.17;;
7001;SDS011;3541;53.230;10.518;2023-11-19T09:58:05;23.47;;;5.60;;
7001;SDS011;3541;53.230;10.518;2023-11-19T10:00:32;26.83;;;5.87;;
7001;SDS011;3541;53.230;10.518;2023-11-19T10:02:59;30.80;;;5.63;;
7001;SDS011;3541;53.230;10.518;2023-11-19T10:05:26;22.93;;;4.87;;
7001;SDS011;3541;53.230;10.518;2023-11-19T10:07:53;22.20;;;5.60;;
7001;SDS011;3541;53.230;10.518;2023-11-19T10:10:20;26.30;;;5.90;;
7001;SDS011;3541;53.230;10.518;2023-11-19T10:12:50;29.60;;;6.27;;
7001;SDS011;3541;53.230;10.518;2023-11-19T10:15:17;24.60;;;5.83;;
7001;SDS011;3541;53.230;10.518;2023-11-19T10:17:47;21.53;;;5.00;;
7001;SDS011;3541;53.230;10.518;2023-11-19T10:20:13;22.60;;;5.53;;
7001;SDS011;3541;53.230;10.518;2023-11-19T10:22:40;15.63;;;5.47;;
7001;SDS011;3541;53.230;10.518;2023-11-19T10:25:08;15.47;;;5.10;;
7001;SDS011;3541;53.230;10.518;2023-11-19T10:27:49;21.97;;;5.03;;
7001;SDS011;3541;53.230;10.518;2023-11-19T10:30:17;23.47;;;5.50;;
7001;SDS011;3541;53.230;10.518;2023-11-19T10:32:44;25.83;;;5.13;;
7001;SDS011;3541;53.230;10.518;2023-11-19T10:35:10;24.13;;;5.17;;
7001;SDS011;3541;53.230;10.518;2023-11-19T10:37:38;29.90;;;4.83;;
7001;SDS011;3541;53.230;10.518;2023-11-19T10:40:06;23.77;;;5.13;;
7001;SDS011;3541;53.230;10.518;2023-11-19T10:42:35;22.73;;;4.90;;
7001;SDS011;3541;53.230;10.518;2023-11-19T10:45:03;20.50;;;6.07;;
7001;SDS011;3541;53.230;10.518;2023-11-19T10:47:30;23.63;;;4.30;;
7001;SDS011;3541;53.230;10.518;2023-11-19T10:49:59;23.30;;;5.80;;
7001;SDS011;3541;53.230;10.518;2023-11-19T10:52:25;22.83;;;5.23;;
7001;SDS011;3541;53.230;10.518;2023-11-19T10:54:53;19.53;;;4.67;;
7001;SDS011;3541;53.230;10.518;2023-11-19T10:57:25;22.17;;;4.40;;
7001;SDS011;3541;53.230;10.518;2023-11-19T11:00:00;25.07;;;4.53;;
7001;SDS011;3541;53.230;10.518;2023-11-19T11:02:35;23.53;;;5.23;;
7001;SDS011;3541;53.230;10.518;2023-11-19T11:05:07;22.23;;;5.20;;
7001;SDS011;3541;53.230;10.518;2023-11-19T11:07:34;23.63;;;5.00;;
7001;SDS011;3541;53.230;10.518;2023-11-19T11:10:01;21.87;;;6.07;;
7001;SDS011;3541;53.230;10.518;2023-11-19T11:12:28;27.13;;;5.67;;
7001;SDS011;3541;53.230;10.518;2023-11-19T11:14:57;18.27;;;5.17;;
7001;SDS011;3541;53.230;10.518;2023-11-19T11:17:25;18.87;;;5.00;;
7001;SDS011;3541;53.230;10.518;2023-11-19T11:19:56;21.27;;;5.07;;
7001;SDS011;3541;53.230;10.518;2023-11-19T11:22:23;22.90;;;4.60;;
7001;SDS011;3541;53.230;10.518;2023-11-19T11:24:59;16.57;;;4.27;;
7001;SDS011;3541;53.230;10.518;2023-11-19T11:27:57;19.13;;;4.57;;
7001;SDS011;3541;53.230;10.518;2023-11-19T11:30:43;22.87;;;5.70;;
7001;SDS011;3541;53.230;10.518;2023-11-19T11:33:23;22.63;;;4.50;;
7001;SDS011;3541;53.230;10.518;2023-11-19T11:36:00;21.30;;;5.97;;
7001;SDS011;3541;53.230;10.518;2023-11-19T11:38:37;21.47;;;5.47;;
7001;SDS011;3541;53.230;10.518;2023-11-19T11:41:16;16.23;;;4.07;;
7001;SDS011;3541;53.230;10.518;2023-11-19T11:43:45;18.17;;;4.80;;
7001;SDS011;3541;53.230;10.518;2023-11-19T11:49:18;22.90;;;5.07;;
7001;SDS011;3541;53.230;10.518;2023-11-19T11:51:59;25.33;;;5.23;;
7001;SDS011;3541;53.230;10.518;2023-11-19T11:54:26;19.73;;;3.93;;
7001;SDS011;3541;53.230;10.518;2023-11-19T11:57:02;19.03;;;4.80;;
7001;SDS011;3541;53.230;10.518;2023-11-19T11:59:31;26.30;;;6.77;;
7001;SDS011;3541;53.230;10.518;2023-11-19T12:02:03;17.23;;;4.10;;
7001;SDS011;3541;53.230;10.518;2023-11-19T12:04:32;27.00;;;4.93;;
7001;SDS011;3541;53.230;10.518;2023-11-19T12:07:04;15.63;;;3.87;;
7001;SDS011;3541;53.230;10.518;2023-11-19T12:09:31;18.83;;;4.53;;
7001;SDS011;3541;53.230;10.518;2023-11-19T12:12:07;15.73;;;4.43;;
7001;SDS011;3541;53.230;10.518;2023-11-19T12:15:02;18.43;;;4.10;;
7001;SDS011;3541;53.230;10.518;2023-11-19T12:17:40;14.77;;;3.70;;
7001;SDS011;3541;53.230;10.518;2023-11-19T12:20:10;19.53;;;4.40;;
7001;SDS011;3541;53.230;10.518;2023-11-19T12:22:37;18.87;;;3.13;;
7001;SDS011;3541;53.230;10.518;2023-11-19T12:25:05;15.60;;;3.90;;
7001;SDS011;3541;53.230;10.518;2023-11-19T12:29:59;13.87;;;3.50;;
7001;SDS011;3541;53.230;10.518;2023-11-19T12:32:27;18.03;;;4.43;;
7001;SDS011;3541;53.230;10.518;2023-11-19T12:35:03;19.30;;;4.63;;
7001;SDS011;3541;53.230;10.518;2023-11-19T12:37:31;13.90;;;3.57;;
7001;SDS011;3541;53.230;10.518;2023-11-19T12:39:58;19.60;;;4.67;;
7001;SDS011;3541;53.230;10.518;2023-11-19T12:42:34;18.30;;;3.90;;
7001;SDS011;3541;53.230;10.518;2023-11-19T12:45:01;20.07;;;4.27;;
7001;SDS011;3541;53.230;10.518;2023-11-19T12:47:28;19.90;;;4.20;;
7001;SDS011;3541;53.230;10.518;2023-11-19T12:49:55;24.10;;;6.40;;
7001;SDS011;3541;53.230;10.518;2023-11-19T12:52:22;17.43;;;4.67;;
7001;SDS011;3541;53.230;10.518;2023-11-19T12:54:50;14.50;;;3.60;;
7001;SDS011;3541;53.230;10.518;2023-11-19T12:57:17;14.37;;;3.43;;
7001;SDS011;3541;53.230;10.518;2023-11-19T12:59:54;17.87;;;3.97;;
7001;SDS011;3541;53.230;10.518;2023-11-19T13:02:21;13.57;;;3.63;;
7001;SDS011;3541;53.230;10.518;2023-11-19T13:04:48;15.57;;;3.70;;
7001;SDS011;3541;53.230;10.518;2023-11-19T13:07:16;21.10;;;3.97;;
7001;SDS011;3541;53.230;10.518;2023-11-19T13:09:46;18.73;;;3.90;;
7001;SDS011;3541;53.230;10.518;2023-11-19T13:12:15;18.90;;;4.63;;
7001;SDS011;3541;53.230;10.518;2023-11-19T13:14:42;16.17;;;3.70;;
7001;SDS011;3541;53.230;10.518;2023-11-19T13:17:12;19.23;;;4.70;;
7001;SDS011;3541;53.230;10.518;2023-11-19T13:19:39;17.70;;;3.60;;
7001;SDS011;3541;53.230;10.518;2023-11-19T13:22:06;15.60;;;5.40;;
7001;SDS011;3541;53.230;10.518;2023-11-19T13:24:33;22.97;;;5.23;;
7001;SDS011;3541;53.230;10.518;2023-11-19T13:27:00;19.53;;;5.67;;
7001;SDS011;3541;53.230;10.518;2023-11-19T13:29:28;15.43;;;3.60;;
7001;SDS011;3541;53.230;10.518;2023-11-19T13:31:54;18.00;;;3.73;;
7001;SDS011;3541;53.230;10.518;2023-11-19T13:34:21;22.60;;;4.27;;
7001;SDS011;3541;53.230;10.518;2023-11-19T13:36:47;17.63;;;4.23;;
7001;SDS011;3541;53.230;10.518;2023-11-19T13:39:14;28.23;;;5.00;;
7001;SDS011;3541;53.230;10.518;2023-11-19T13:41:47;19.77;;;4.97;;
7001;SDS011;3541;53.230;10.518;2023-11-19T13:44:15;21.07;;;6.20;;
7001;SDS011;3541;53.230;10.518;2023-11-19T13:46:43;19.03;;;4.77;;
7001;SDS011;3541;53.230;10.518;2023-11-19T13:49:10;24.27;;;5.20;;
7001;SDS011;3541;53.230;10.518;2023-11-19T13:51:37;17.10;;;4.80;;
7001;SDS011;3541;53.230;10.518;2023-11-19T13:54:03;16.07;;;4.20;;
7001;SDS011;3541;53.230;10.518;2023-11-19T13:56:30;30.37;;;4.90;;
7001;SDS011;3541;53.230;10.518;2023-11-19T13:58:57;25.50;;;5.13;;
7001;SDS011;3541;53.230;10.518;2023-11-19T14:01:23;26.63;;;5.27;;
7001;SDS011;3541;53.230;10.518;2023-11-19T14:03:53;23.17;;;4.97;;
7001;SDS011;3541;53.230;10.518;2023-11-19T14:06:20;20.63;;;4.53;;
7001;SDS011;3541;53.230;10.518;2023-11-19T14:08:46;21.40;;;4.80;;
7001;SDS011;3541;53.230;10.518;2023-11-19T14:11:13;24.00;;;4.87;;
7001;SDS011;3541;53.230;10.518;2023-11-19T14:13:40;30.30;;;5.17;;
7001;SDS011;3541;53.230;10.518;2023-11-19T14:16:06;22.27;;;5.87;;
7001;SDS011;3541;53.230;10.518;2023-11-19T14:18:34;26.17;;;6.00;;
7001;SDS011;3541;53.230;10.518;2023-11-19T14:21:02;20.33;;;5.00;;
7001;SDS011;3541;53.230;10.518;2023-11-19T14:23:30;26.10;;;5.20;;
7001;SDS011;3541;53.230;10.518;2023-11-19T14:25:56;27.37;;;5.23;;
7001;SDS011;3541;53.230;10.518;2023-11-19T14:28:23;20.67;;;5.30;;
7001;SDS011;3541;53.230;10.518;2023-11-19T14:30:51;28.43;;;5.33;;
7001;SDS011;3541;53.230;10.518;2023-11-19T14:33:21;20.70;;;3.90;;
7001;SDS011;3541;53.230;10.518;2023-11-19T14:35:48;19.13;;;5.97;;
7001;SDS011;3541;53.230;10.518;2023-11-19T14:38:16;20.30;;;4.70;;
7001;SDS011;3541;53.230;10.518;2023-11-19T14:40:43;23.60;;;4.17;;
7001;SDS011;3541;53.230;10.518;2023-11-19T14:43:09;23.93;;;4.70;;
7001;SDS011;3541;53.230;10.518;2023-11-19T14:45:36;17.60;;;3.90;;
7001;SDS011;3541;53.230;10.518;2023-11-19T14:48:02;20.73;;;3.97;;
7001;SDS011;3541;53.230;10.518;2023-11-19T14:50:29;18.43;;;3.93;;
7001;SDS011;3541;53.230;10.518;2023-11-19T14:52:56;17.13;;;4.37;;
7001;SDS011;3541;53.230;10.518;2023-11-19T14:55:24;16.27;;;3.97;;
7001;SDS011;3541;53.230;10.518;2023-11-19T14:57:51;13.33;;;3.67;;
7001;SDS011;3541;53.230;10.518;2023-11-19T15:00:18;13.53;;;3.43;;